Latest Coastal Weather Observations for Eucla

IDW60701

Issued at 6:32 am WST Tuesday 27 January 2015 (issued every 10 minutes, with the page automatically refreshed every 10 minutes)

About coastal observations | Map of coastal stations | Coastal observations for WA | Marine services | Other Formats
Station Details ID: 011003 Name: EUCLA Lat: -31.68 Lon: 128.90 Height: 93.1 m
Data from the previous 72 hours. | See also: Recent months at Eucla
Date/Time
WST
Temp

°C
Wind Pressure Rain
since 9am
mm
Weather Cloud Vis
km
Sea
Height
m
Swell
Dir
 
Speed
knots
Gust
knots
hPa Trend Height
m
Period
s
Dir
27/06:30am 19.5 ESE 9 15 1018.2 - 0.0 - - - - - - -
27/06:00am 19.0 E 9 18 1018.1 - 0.0 - - - - - - -
27/05:30am 17.9 ESE 10 15 1017.8 - 0.0 - - - - - - -
27/05:00am 17.8 E 9 17 1017.5 - 0.0 - - - - - - -
27/04:30am 17.6 ESE 10 17 1017.2 - 0.0 - - - - - - -
27/04:00am 17.7 E 8 13 1017.1 - 0.0 - - - - - - -
27/03:30am 17.8 ESE 10 15 1016.9 - 0.0 - - - - - - -
27/03:00am 17.8 ESE 10 15 1017.1 - 0.0 - - - - - - -
27/02:30am 17.8 ESE 9 15 1017.0 - 0.0 - - - - - - -
27/02:00am 17.7 ESE 10 16 1017.0 - 0.0 - - - - - - -
27/01:30am 17.9 E 11 16 1017.1 - 0.0 - - - - - - -
27/01:00am 17.9 E 9 13 1017.2 - 0.0 - - - - - - -
27/12:30am 18.1 ESE 10 15 1017.3 - 0.0 - - - - - - -
27/12:00am 17.9 ESE 10 16 1017.6 - 0.0 - - - - - - -
 
Date/Time
WST
Temp

°C
Wind Pressure Rain
since 9am
mm
Weather Cloud Vis
km
Sea
Height
m
Swell
Dir
 
Speed
knots
Gust
knots
hPa Trend Height
m
Period
s
Dir
26/11:30pm 18.2 E 11 16 1017.6 - 0.0 - - - - - - -
26/11:00pm 18.1 ESE 10 16 1017.7 - 0.0 - - - - - - -
26/10:30pm 18.0 ESE 9 15 1017.9 - 0.0 - - - - - - -
26/10:00pm 18.0 ESE 10 16 1018.2 - 0.0 - - - - - - -
26/09:30pm 17.8 ESE 10 16 1018.2 - 0.0 - - - - - - -
26/09:00pm 18.2 ESE 10 18 1018.4 - 0.0 - - - - - - -
26/08:30pm 18.3 ESE 10 15 1018.6 - 0.0 - - - - - - -
26/08:00pm 18.4 ESE 11 17 1018.6 - 0.0 - - - - - - -
26/07:30pm 18.5 ESE 11 18 1018.6 - 0.0 - - - - - - -
26/07:00pm 18.5 ESE 11 19 1018.4 - 0.0 - - - - - - -
26/06:30pm 18.6 ESE 13 18 1018.2 - 0.0 - - - - - - -
26/06:00pm 18.7 SE 11 18 1017.9 - 0.0 - - - - - - -
26/05:30pm 19.0 ESE 14 20 1017.9 - 0.0 - - - - - - -
26/05:00pm 19.9 ESE 12 18 1017.8 - 0.0 - - - - - - -
26/04:30pm 21.2 SE 13 19 1017.6 - 0.0 - - - - - - -
26/04:00pm 20.7 ESE 12 20 1017.7 - 0.0 - - - - - - -
26/03:30pm 21.6 ESE 14 20 1017.6 - 0.0 - - - - - - -
26/03:00pm 21.6 ESE 12 19 1018.0 - 0.0 Fine Mostly clear 40 - - - -
26/02:30pm 21.7 SE 13 20 1018.1 - 0.0 - - - - - - -
26/02:00pm 22.0 SE 13 19 1018.2 - 0.0 - - - - - - -
26/01:30pm 22.2 SE 11 17 1018.4 - 0.0 - - - - - - -
26/01:00pm 22.1 SE 12 19 1018.5 - 0.0 - - - - - - -
26/12:30pm 21.8 SE 12 18 1018.8 - 0.0 - - - - - - -
26/12:00pm 21.5 SE 13 20 1019.2 - 0.0 - - - - - - -
26/11:30am 22.3 ESE 11 18 1019.4 - 0.0 - - - - - - -
26/11:00am 22.4 SE 11 20 1019.6 - 0.0 - - - - - - -
26/10:30am 21.4 SE 11 18 1019.8 - 0.0 - - - - - - -
26/10:00am 21.1 ESE 9 16 1019.8 - 0.0 - - - - - - -
26/09:30am 20.4 ESE 10 17 1020.0 - 0.0 - - - - - - -
26/09:00am 20.3 E 10 15 1020.1 - 0.0 Fine Mostly cloudy 40 - - - -
26/08:30am 20.0 ESE 10 16 1020.1 - 0.0 - - - - - - -
26/08:00am 19.5 ESE 11 17 1019.9 - 0.0 - - - - - - -
26/07:30am 19.1 ESE 10 15 1019.7 - 0.0 - - - - - - -
26/07:00am 18.7 ESE 9 15 1019.7 - 0.0 - - - - - - -
26/06:30am 18.5 ESE 9 14 1019.3 - 0.0 - - - - - - -
26/06:00am 19.0 ESE 8 13 1019.1 - 0.0 - - - - - - -
26/05:30am 17.8 ESE 8 14 1018.9 - 0.0 - - - - - - -
26/05:00am 17.6 ESE 9 15 1018.7 - 0.0 - - - - - - -
26/04:30am 17.4 SE 9 13 1018.3 - 0.0 - - - - - - -
26/04:00am 17.5 ESE 8 15 1018.1 - 0.0 - - - - - - -
26/03:30am 17.4 ESE 8 10 1018.0 - 0.0 - - - - - - -
26/03:00am 17.5 SE 9 14 1017.7 - 0.0 - - - - - - -
26/02:30am 17.5 SE 6 10 1017.7 - 0.0 - - - - - - -
26/02:00am 17.5 SE 8 15 1017.8 - 0.0 - - - - - - -
26/01:30am 17.5 SE 8 13 1017.7 - 0.0 - - - - - - -
26/01:00am 17.6 SE 9 14 1017.8 - 0.0 - - - - - - -
26/12:30am 17.7 ESE 9 14 1018.0 - 0.0 - - - - - - -
26/12:00am 17.7 ESE 9 14 1017.8 - 0.0 - - - - - - -
 
Date/Time
WST
Temp

°C
Wind Pressure Rain
since 9am
mm
Weather Cloud Vis
km
Sea
Height
m
Swell
Dir
 
Speed
knots
Gust
knots
hPa Trend Height
m
Period
s
Dir
25/11:30pm 17.7 SE 9 13 1018.2 - 0.0 - - - - - - -
25/11:00pm 17.8 ESE 9 15 1018.2 - 0.0 - - - - - - -
25/10:30pm 17.7 ESE 8 12 1018.1 - 0.0 - - - - - - -
25/10:00pm 17.5 SE 8 11 1018.4 - 0.0 - - - - - - -
25/09:30pm 17.7 ESE 8 14 1018.6 - 0.0 - - - - - - -
25/09:00pm 17.3 SE 8 13 1018.6 - 0.0 - - - - - - -
25/08:30pm 17.6 SE 8 15 1018.5 - 0.0 - - - - - - -
25/08:00pm 17.4 SSE 8 12 1018.6 - 0.0 - - - - - - -
25/07:30pm 17.4 SSE 8 13 1018.6 - 0.0 - - - - - - -
25/07:00pm 17.2 SE 7 11 1018.6 - 0.0 - - - - - - -
25/06:30pm 17.8 SE 8 14 1018.5 - 0.0 - - - - - - -
25/06:00pm 18.3 SE 10 14 1018.3 - 0.0 - - - - - - -
25/05:30pm 18.9 SE 10 15 1018.1 - 0.0 - - - - - - -
25/05:00pm 19.1 SE 10 16 1017.8 - 0.0 - - - - - - -
25/04:30pm 19.3 SE 11 15 1017.6 - 0.0 - - - - - - -
25/04:00pm 20.2 SE 11 16 1017.6 - 0.0 - - - - - - -
25/03:30pm 21.0 SSE 11 17 1017.7 - 0.0 - - - - - - -
25/03:00pm 21.0 SE 11 16 1017.8 - 0.0 Fine Partly cloudy 40 - - - -
25/02:30pm 22.6 SSE 11 18 1017.9 - 0.0 - - - - - - -
25/02:00pm 21.5 SSE 10 14 1017.8 - 0.0 - - - - - - -
25/01:30pm 21.8 SSE 11 18 1017.8 - 0.0 - - - - - - -
25/01:00pm 22.5 SE 12 18 1017.8 - 0.0 - - - - - - -
25/12:30pm 22.0 SE 11 17 1017.9 - 0.0 - - - - - - -
25/12:00pm 22.7 SE 12 19 1017.9 - 0.0 - - - - - - -
25/11:30am 22.4 SE 12 19 1018.1 - 0.0 - - - - - - -
25/11:00am 22.5 SE 11 18 1018.1 - 0.0 - - - - - - -
25/10:30am 22.6 SE 12 18 1018.2 - 0.0 - - - - - - -
25/10:00am 21.4 SSE 11 17 1018.1 - 0.0 - - - - - - -
25/09:30am 20.7 SE 11 17 1017.9 - 0.0 - - - - - - -
25/09:00am 20.9 SE 11 17 1017.7 - 0.0 Haze Mostly cloudy 25 - - - -
25/08:30am 21.1 SE 11 15 1017.4 - 0.0 - - - - - - -
25/08:00am 21.5 SSE 9 16 1017.3 - 0.0 - - - - - - -
25/07:30am 19.4 SSE 10 16 1017.1 - 0.0 - - - - - - -
25/07:00am 19.6 S 7 12 1017.1 - 0.0 - - - - - - -
25/06:30am 19.1 SSE 8 11 1016.7 - 0.0 - - - - - - -
25/06:00am 18.3 SSE 7 12 1016.3 - 0.0 - - - - - - -
25/05:30am 17.7 SSE 8 13 1015.6 - 0.0 - - - - - - -
25/05:00am 17.2 SSE 7 10 1015.4 - 0.0 - - - - - - -
25/04:30am 16.8 SSE 5 7 1015.3 - 0.0 - - - - - - -
25/04:00am 17.7 SSE 5 8 1015.2 - 0.0 - - - - - - -
25/03:30am 18.0 SSE 6 10 1014.9 - 0.0 - - - - - - -
25/03:00am 18.0 SSE 6 8 1014.8 - 0.0 - - - - - - -
25/02:30am 18.0 SSE 6 9 1014.7 - 0.0 - - - - - - -
25/02:00am 18.3 SSE 8 12 1014.8 - 0.0 - - - - - - -
25/01:30am 18.4 SSE 8 13 1014.7 - 0.0 - - - - - - -
25/01:00am 18.2 S 5 8 1014.7 - 0.0 - - - - - - -
25/12:30am 18.2 SSE 5 8 1014.9 - 0.0 - - - - - - -
25/12:00am 18.2 SE 6 9 1014.7 - 0.0 - - - - - - -
 
Date/Time
WST
Temp

°C
Wind Pressure Rain
since 9am
mm
Weather Cloud Vis
km
Sea
Height
m
Swell
Dir
 
Speed
knots
Gust
knots
hPa Trend Height
m
Period
s
Dir
24/11:30pm 17.8 SSE 7 11 1014.9 - 0.0 - - - - - - -
24/11:00pm 18.0 SSE 8 12 1014.9 - 0.0 - - - - - - -
24/10:30pm 18.3 SSE 8 14 1015.2 - 0.0 - - - - - - -
24/10:00pm 18.7 SSE 10 16 1015.2 - 0.0 - - - - - - -
24/09:30pm 18.9 SSE 9 17 1015.3 - 0.0 - - - - - - -
24/09:00pm 19.3 S 8 15 1015.3 - 0.0 - - - - - - -
24/08:30pm 19.3 S 8 13 1015.3 - 0.0 - - - - - - -
24/08:00pm 19.4 S 9 13 1015.2 - 0.0 - - - - - - -
24/07:30pm 19.4 S 10 16 1014.8 - 0.0 - - - - - - -
24/07:00pm 19.4 S 9 15 1014.5 - 0.0 - - - - - - -
24/06:30pm 19.9 SSW 10 15 1014.1 - 0.0 - - - - - - -
24/06:00pm 20.3 S 9 15 1014.0 - 0.0 - - - - - - -
24/05:30pm 20.8 S 11 17 1013.7 - 0.0 - - - - - - -
24/05:00pm 21.3 SSW 11 18 1013.6 - 0.0 - - - - - - -
24/04:30pm 22.0 SSW 11 19 1013.3 - 0.0 - - - - - - -
24/04:00pm 22.7 SSW 13 22 1013.2 - 0.0 - - - - - - -
24/03:30pm 23.2 SSW 13 25 1013.2 - 0.0 - - - - - - -
24/03:00pm 23.9 SSW 14 21 1013.3 - 0.0 Haze Mostly clear 25 - - - -
24/02:30pm 24.4 SSW 13 21 1013.2 - 0.0 - - - - - - -
24/02:00pm 23.8 SSW 15 22 1013.2 - 0.0 - - - - - - -
24/01:30pm 23.9 SSW 15 24 1013.1 - 0.0 - - - - - - -
24/01:00pm 25.2 SSW 14 22 1013.0 - 0.0 - - - - - - -
24/12:30pm 24.5 SSW 14 22 1013.0 - 0.0 - - - - - - -
24/12:00pm 24.6 SSW 13 21 1012.9 - 0.0 - - - - - - -
24/11:30am 24.7 SSW 12 20 1013.0 - 0.0 - - - - - - -
24/11:00am 24.5 SSW 12 18 1013.1 - 0.0 - - - - - - -
24/10:30am 24.3 SSW 12 17 1013.3 - 0.0 - - - - - - -
24/10:00am 24.0 SSW 13 20 1013.3 - 0.0 - - - - - - -
24/09:30am 23.5 SSW 11 17 1013.1 - 0.0 - - - - - - -
24/09:00am 23.5 S 11 17 1013.0 - 0.0 Fine Mostly clear 40 - - - -
24/08:30am 22.3 SW 8 15 1013.0 - 0.0 - - - - - - -
24/08:00am 21.7 SW 6 10 1012.9 - 0.0 - - - - - - -
24/07:30am 20.9 W 7 12 1013.2 - 0.0 - - - - - - -
24/07:00am 19.0 WNW 6 9 1013.1 - 0.0 - - - - - - -

Other Formats:

Comma delimited format used in spreadsheet applications
http://www.bom.gov.au/fwo/IDW60701/IDW60701.94647.axf

JavaScript Object Notation format (JSON) in row-major order
http://www.bom.gov.au/fwo/IDW60701/IDW60701.94647.json